createdAt,value
2018-01-22T00:00:53.573Z,3.63
2018-01-22T00:01:53.589Z,3.66
2018-01-22T00:02:53.603Z,3.80
2018-01-22T00:03:53.611Z,3.83
2018-01-22T00:04:53.625Z,3.66
2018-01-22T00:05:53.637Z,3.63
2018-01-22T00:06:53.648Z,3.78
2018-01-22T00:07:53.659Z,3.77
2018-01-22T00:08:53.672Z,3.78
2018-01-22T00:09:53.741Z,3.66
2018-01-22T00:10:53.696Z,3.73
2018-01-22T00:11:53.712Z,3.50
2018-01-22T00:12:53.724Z,3.60
2018-01-22T00:13:53.737Z,3.76
2018-01-22T00:14:53.756Z,3.69
2018-01-22T00:15:53.760Z,3.53
2018-01-22T00:16:53.772Z,3.63
2018-01-22T00:17:53.785Z,3.60
2018-01-22T00:18:53.799Z,3.69
2018-01-22T00:19:53.810Z,3.80
2018-01-22T00:20:53.823Z,3.78
2018-01-22T00:21:53.832Z,3.87
2018-01-22T00:22:53.849Z,3.98
2018-01-22T00:23:53.863Z,4.08
2018-01-22T00:24:53.873Z,4.04
2018-01-22T00:25:53.887Z,4.01
2018-01-22T00:26:53.909Z,4.19
2018-01-22T00:27:53.911Z,4.16
2018-01-22T00:28:53.958Z,4.28
2018-01-22T00:29:53.936Z,4.24
2018-01-22T00:30:53.948Z,4.37
2018-01-22T00:31:53.962Z,4.41
2018-01-22T00:32:53.973Z,4.35
2018-01-22T00:33:53.985Z,4.44
2018-01-22T00:34:54.000Z,4.20
2018-01-22T00:35:54.008Z,4.37
2018-01-22T00:36:54.022Z,4.40
2018-01-22T00:37:54.035Z,4.38
2018-01-22T00:38:54.045Z,4.42
2018-01-22T00:39:54.060Z,4.48
2018-01-22T00:40:54.074Z,4.34
2018-01-22T00:41:54.083Z,4.41
2018-01-22T00:42:54.097Z,4.40
2018-01-22T00:43:54.109Z,4.38
2018-01-22T00:44:54.122Z,4.41
2018-01-22T00:45:54.146Z,4.32
2018-01-22T00:46:54.164Z,4.41
2018-01-22T00:47:54.160Z,4.40
2018-01-22T00:48:54.180Z,4.45
2018-01-22T00:49:54.186Z,4.45
2018-01-22T00:50:54.197Z,4.50
2018-01-22T00:51:54.210Z,4.41
2018-01-22T00:52:54.221Z,4.24
2018-01-22T00:53:54.237Z,4.22
2018-01-22T00:54:54.253Z,4.20
2018-01-22T00:55:54.260Z,4.20
2018-01-22T00:56:54.275Z,4.19
2018-01-22T00:57:54.286Z,4.14
2018-01-22T00:58:54.301Z,4.13
2018-01-22T00:59:54.320Z,3.95
2018-01-22T01:00:54.325Z,3.99
2018-01-22T01:01:54.343Z,4.08
2018-01-22T01:02:54.349Z,4.20
2018-01-22T01:03:54.369Z,4.23
2018-01-22T01:04:54.373Z,4.26
2018-01-22T01:05:54.454Z,4.32
2018-01-22T01:06:54.399Z,4.31
2018-01-22T01:07:54.414Z,4.13
2018-01-22T01:08:54.431Z,4.17
2018-01-22T01:09:54.440Z,4.24
2018-01-22T01:10:54.451Z,4.23
2018-01-22T01:11:54.458Z,4.08
2018-01-22T01:12:54.475Z,4.08
2018-01-22T01:13:54.488Z,4.08
2018-01-22T01:14:54.501Z,4.13
2018-01-22T01:15:54.512Z,4.14
2018-01-22T01:16:54.524Z,4.06
2018-01-22T01:17:54.549Z,4.02
2018-01-22T01:18:54.550Z,4.04
2018-01-22T01:19:54.562Z,3.99
2018-01-22T01:20:54.573Z,3.86
2018-01-22T01:21:54.588Z,4.02
2018-01-22T01:22:54.612Z,4.19
2018-01-22T01:23:54.614Z,4.17
2018-01-22T01:24:54.623Z,4.04
2018-01-22T01:25:54.640Z,4.14
2018-01-22T01:26:54.651Z,3.95
2018-01-22T01:27:54.665Z,3.73
2018-01-22T01:28:54.674Z,3.77
2018-01-22T01:29:54.687Z,3.77
2018-01-22T01:30:54.699Z,3.83
2018-01-22T01:31:54.716Z,3.66
2018-01-22T01:32:54.724Z,3.76
2018-01-22T01:33:54.736Z,3.92
2018-01-22T01:34:54.750Z,3.78
2018-01-22T01:35:54.762Z,3.65
2018-01-22T01:36:54.821Z,3.91
2018-01-22T01:37:54.787Z,3.96
2018-01-22T01:38:54.801Z,4.06
2018-01-22T01:39:54.811Z,4.17
2018-01-22T01:40:54.826Z,4.17
2018-01-22T01:41:54.836Z,4.14
2018-01-22T01:42:54.848Z,4.19
2018-01-22T01:43:54.862Z,4.17
2018-01-22T01:44:54.873Z,4.26
2018-01-22T01:45:54.887Z,4.06
2018-01-22T01:46:54.899Z,3.99
2018-01-22T01:47:54.912Z,3.95
2018-01-22T01:48:54.924Z,3.78
2018-01-22T01:49:54.938Z,3.98
2018-01-22T01:50:54.949Z,3.83
2018-01-22T01:51:54.963Z,3.69
2018-01-22T01:52:54.984Z,3.78
2018-01-22T01:53:54.988Z,3.88
2018-01-22T01:54:55.145Z,3.81
2018-01-22T01:55:55.014Z,3.96
2018-01-22T01:56:55.024Z,4.05
2018-01-22T01:57:55.037Z,3.92
2018-01-22T01:58:55.051Z,3.96
2018-01-22T01:59:55.067Z,3.99
2018-01-22T02:00:55.073Z,3.98
2018-01-22T02:01:55.084Z,3.86
2018-01-22T02:02:55.100Z,3.77
2018-01-22T02:03:55.109Z,3.83
2018-01-22T02:04:55.124Z,3.99
2018-01-22T02:05:55.136Z,4.06
2018-01-22T02:06:55.153Z,4.08
2018-01-22T02:07:55.163Z,4.23
2018-01-22T02:08:55.175Z,4.12
2018-01-22T02:09:55.188Z,4.05
2018-01-22T02:10:55.199Z,4.16
2018-01-22T02:11:55.211Z,4.05
2018-01-22T02:12:55.225Z,3.92
2018-01-22T02:13:55.234Z,3.95
2018-01-22T02:14:55.252Z,3.96
2018-01-22T02:15:55.262Z,3.76
2018-01-22T02:16:55.275Z,3.81
2018-01-22T02:17:55.285Z,3.88
2018-01-22T02:18:55.301Z,3.81
2018-01-22T02:19:55.309Z,3.83
2018-01-22T02:20:55.329Z,3.73
2018-01-22T02:21:55.334Z,3.69
2018-01-22T02:22:55.348Z,3.70
2018-01-22T02:23:55.363Z,3.70
2018-01-22T02:24:55.372Z,3.74
2018-01-22T02:25:55.387Z,3.60
2018-01-22T02:26:55.397Z,3.41
2018-01-22T02:27:55.407Z,3.48
2018-01-22T02:28:55.422Z,3.48
2018-01-22T02:29:55.442Z,3.66
2018-01-22T02:30:55.456Z,3.40
2018-01-22T02:31:55.458Z,3.42
2018-01-22T02:32:55.473Z,3.36
2018-01-22T02:33:55.488Z,3.50
2018-01-22T02:34:55.498Z,3.63
2018-01-22T02:35:55.506Z,3.63
2018-01-22T02:36:55.520Z,3.56
2018-01-22T02:37:55.530Z,3.50
2018-01-22T02:38:55.545Z,3.41
2018-01-22T02:39:55.556Z,3.36
2018-01-22T02:40:55.568Z,3.31
2018-01-22T02:41:55.578Z,3.51
2018-01-22T02:42:55.595Z,3.63
2018-01-22T02:43:55.604Z,3.56
2018-01-22T02:44:55.619Z,3.45
2018-01-22T02:45:55.628Z,3.50
2018-01-22T02:46:55.642Z,3.55
2018-01-22T02:47:55.655Z,3.66
2018-01-22T02:48:55.665Z,3.40
2018-01-22T02:49:55.677Z,3.44
2018-01-22T02:50:55.690Z,3.51
2018-01-22T02:51:55.700Z,3.31
2018-01-22T02:52:55.715Z,3.44
2018-01-22T02:53:55.727Z,3.69
2018-01-22T02:54:55.740Z,3.74
2018-01-22T02:55:55.748Z,3.83
2018-01-22T02:56:55.765Z,3.69
2018-01-22T02:57:55.777Z,3.51
2018-01-22T02:58:55.788Z,3.66
2018-01-22T02:59:55.799Z,3.66
2018-01-22T03:00:55.838Z,3.45
2018-01-22T03:01:55.826Z,3.47
2018-01-22T03:02:55.836Z,3.50
2018-01-22T03:03:55.849Z,3.36
2018-01-22T03:04:55.862Z,3.28
2018-01-22T03:05:55.871Z,3.34
2018-01-22T03:06:55.888Z,3.16
2018-01-22T03:07:55.894Z,3.36
2018-01-22T03:08:55.907Z,3.32
2018-01-22T03:09:55.921Z,3.37
2018-01-22T03:10:55.936Z,3.26
2018-01-22T03:11:55.945Z,3.37
2018-01-22T03:12:55.957Z,3.44
2018-01-22T03:13:55.973Z,3.68
2018-01-22T03:14:55.983Z,3.78
2018-01-22T03:15:55.992Z,3.84
2018-01-22T03:16:56.013Z,3.87
2018-01-22T03:17:56.017Z,3.70
2018-01-22T03:18:56.029Z,3.68
2018-01-22T03:19:56.041Z,3.78
2018-01-22T03:20:56.052Z,3.80
2018-01-22T03:21:56.066Z,3.70
2018-01-22T03:22:56.078Z,3.69
2018-01-22T03:23:56.088Z,3.81
2018-01-22T03:24:56.116Z,3.62
2018-01-22T03:25:56.112Z,3.59
2018-01-22T03:26:56.124Z,3.66
2018-01-22T03:27:56.138Z,3.66
2018-01-22T03:28:56.150Z,3.44
2018-01-22T03:29:56.165Z,3.36
2018-01-22T03:30:56.176Z,3.36
2018-01-22T03:31:56.186Z,3.48
2018-01-22T03:32:56.202Z,3.53
2018-01-22T03:33:56.212Z,3.55
2018-01-22T03:34:56.224Z,3.44
2018-01-22T03:35:56.233Z,3.29
2018-01-22T03:36:56.246Z,3.36
2018-01-22T03:37:56.259Z,3.36
2018-01-22T03:38:56.272Z,3.47
2018-01-22T03:39:56.282Z,3.51
2018-01-22T03:40:56.297Z,3.68
2018-01-22T03:41:56.320Z,3.62
2018-01-22T03:42:56.321Z,3.51
2018-01-22T03:43:56.352Z,3.51
2018-01-22T03:44:56.351Z,3.60
2018-01-22T03:45:56.354Z,3.47
2018-01-22T03:46:56.369Z,3.65
2018-01-22T03:47:56.505Z,3.62
2018-01-22T03:48:56.396Z,3.69
2018-01-22T03:49:56.405Z,3.44
2018-01-22T03:50:56.416Z,3.13
2018-01-22T03:51:56.427Z,3.25
2018-01-22T03:52:56.441Z,3.36
2018-01-22T03:53:56.451Z,3.37
2018-01-22T03:54:56.465Z,3.36
2018-01-22T03:55:56.476Z,3.47
2018-01-22T03:56:56.488Z,3.22
2018-01-22T03:57:56.500Z,3.26
2018-01-22T03:58:56.514Z,3.32
2018-01-22T03:59:56.526Z,3.23
2018-01-22T04:00:56.534Z,3.28
2018-01-22T04:01:56.566Z,3.28
2018-01-22T04:02:56.559Z,3.37
2018-01-22T04:03:56.577Z,3.48
2018-01-22T04:04:56.584Z,3.48
2018-01-22T04:05:56.593Z,3.48
2018-01-22T04:06:56.609Z,3.48
2018-01-22T04:07:56.618Z,3.36
2018-01-22T04:08:56.632Z,3.25
2018-01-22T04:09:56.648Z,3.29
2018-01-22T04:10:56.656Z,3.34
2018-01-22T04:11:56.667Z,3.29
2018-01-22T04:12:56.678Z,3.45
2018-01-22T04:13:56.692Z,3.44
2018-01-22T04:14:56.703Z,3.59
2018-01-22T04:15:56.714Z,3.48
2018-01-22T04:16:56.726Z,3.63
2018-01-22T04:17:56.738Z,3.47
2018-01-22T04:18:56.750Z,3.69
2018-01-22T04:19:56.762Z,3.69
2018-01-22T04:20:56.774Z,3.44
2018-01-22T04:21:56.787Z,3.48
2018-01-22T04:22:56.799Z,3.65
2018-01-22T04:23:56.809Z,3.44
2018-01-22T04:24:56.835Z,3.31
2018-01-22T04:25:56.843Z,3.28
2018-01-22T04:26:56.846Z,3.36
2018-01-22T04:27:56.858Z,3.26
2018-01-22T04:28:56.871Z,3.31
2018-01-22T04:29:56.883Z,3.25
2018-01-22T04:30:56.910Z,3.32
2018-01-22T04:31:56.906Z,3.55
2018-01-22T04:32:56.922Z,3.37
2018-01-22T04:33:56.931Z,3.55
2018-01-22T04:34:56.941Z,3.53
2018-01-22T04:35:56.957Z,3.36
2018-01-22T04:36:56.967Z,3.41
2018-01-22T04:37:56.978Z,3.40
2018-01-22T04:38:56.997Z,3.66
2018-01-22T04:39:57.004Z,3.45
2018-01-22T04:40:57.017Z,3.32
2018-01-22T04:41:57.028Z,3.47
2018-01-22T04:42:57.045Z,3.68
2018-01-22T04:43:57.052Z,3.55
2018-01-22T04:44:57.062Z,3.36
2018-01-22T04:45:57.075Z,3.59
2018-01-22T04:46:57.089Z,3.26
2018-01-22T04:47:57.098Z,3.40
2018-01-22T04:48:57.109Z,3.37
2018-01-22T04:49:57.121Z,3.14
2018-01-22T04:50:57.137Z,3.28
2018-01-22T04:51:57.148Z,3.50
2018-01-22T04:52:57.158Z,3.37
2018-01-22T04:53:57.174Z,3.50
2018-01-22T04:54:57.184Z,3.26
2018-01-22T04:55:57.195Z,3.21
2018-01-22T04:56:57.209Z,3.16
2018-01-22T04:57:57.220Z,3.21
2018-01-22T04:58:57.230Z,3.18
2018-01-22T04:59:57.242Z,3.23
2018-01-22T05:00:57.257Z,3.37
2018-01-22T05:01:57.270Z,3.36
2018-01-22T05:02:57.277Z,3.47
2018-01-22T05:03:57.298Z,3.32
2018-01-22T05:04:57.302Z,3.25
2018-01-22T05:05:57.316Z,3.26
2018-01-22T05:06:57.328Z,3.40
2018-01-22T05:07:57.337Z,3.25
2018-01-22T05:08:57.352Z,3.29
2018-01-22T05:09:57.364Z,3.10
2018-01-22T05:10:57.376Z,3.22
2018-01-22T05:11:57.388Z,3.26
2018-01-22T05:12:57.398Z,3.42
2018-01-22T05:13:57.413Z,3.36
2018-01-22T05:14:57.424Z,3.34
2018-01-22T05:15:57.453Z,3.25
2018-01-22T05:16:57.449Z,3.31
2018-01-22T05:17:57.460Z,3.42
2018-01-22T05:18:57.474Z,3.56
2018-01-22T05:19:57.484Z,3.62
2018-01-22T05:20:57.495Z,3.45
2018-01-22T05:21:57.509Z,3.55
2018-01-22T05:22:57.521Z,3.48
2018-01-22T05:23:57.541Z,3.50
2018-01-22T05:24:57.546Z,3.37
2018-01-22T05:25:57.557Z,3.41
2018-01-22T05:26:57.569Z,3.28
2018-01-22T05:27:57.579Z,3.53
2018-01-22T05:28:57.595Z,3.58
2018-01-22T05:29:57.604Z,3.44
2018-01-22T05:30:57.616Z,3.53
2018-01-22T05:31:57.637Z,3.42
2018-01-22T05:32:57.639Z,3.36
2018-01-22T05:33:57.652Z,3.40
2018-01-22T05:34:57.671Z,3.47
2018-01-22T05:35:57.675Z,3.50
2018-01-22T05:36:57.689Z,3.50
2018-01-22T05:37:57.700Z,3.51
2018-01-22T05:38:57.713Z,3.50
2018-01-22T05:39:57.725Z,3.48
2018-01-22T05:40:57.780Z,3.45
2018-01-22T05:41:57.750Z,3.41
2018-01-22T05:42:57.767Z,3.48
2018-01-22T05:43:57.774Z,3.32
2018-01-22T05:44:57.785Z,3.40
2018-01-22T05:45:57.800Z,3.34
2018-01-22T05:46:57.809Z,3.34
2018-01-22T05:47:57.823Z,3.41
2018-01-22T05:48:57.835Z,3.44
2018-01-22T05:49:57.846Z,3.45
2018-01-22T05:50:57.859Z,3.21
2018-01-22T05:51:57.869Z,3.22
2018-01-22T05:52:57.884Z,3.26
2018-01-22T05:53:57.901Z,3.26
2018-01-22T05:54:57.909Z,3.41
2018-01-22T05:55:57.923Z,3.40
2018-01-22T05:56:57.931Z,3.40
2018-01-22T05:57:57.941Z,3.41
2018-01-22T05:58:57.957Z,3.21
2018-01-22T05:59:57.967Z,3.36
2018-01-22T06:00:57.978Z,3.19
2018-01-22T06:01:57.991Z,3.28
2018-01-22T06:02:58.002Z,3.34
2018-01-22T06:03:58.015Z,3.36
2018-01-22T06:04:58.027Z,3.42
2018-01-22T06:05:58.038Z,3.34
2018-01-22T06:06:58.055Z,3.31
2018-01-22T06:07:58.063Z,3.48
2018-01-22T06:08:58.075Z,3.36
2018-01-22T06:09:58.136Z,3.34
2018-01-22T06:10:58.099Z,3.58
2018-01-22T06:11:58.116Z,3.45
2018-01-22T06:12:58.122Z,3.31
2018-01-22T06:13:58.135Z,3.31
2018-01-22T06:14:58.147Z,3.32
2018-01-22T06:15:58.217Z,3.26
2018-01-22T06:16:58.170Z,3.34
2018-01-22T06:17:58.243Z,3.41
2018-01-22T06:18:58.197Z,3.34
2018-01-22T06:19:58.209Z,3.32
2018-01-22T06:20:58.217Z,3.32
2018-01-22T06:21:58.235Z,3.26
2018-01-22T06:22:58.243Z,3.25
2018-01-22T06:23:58.253Z,3.21
2018-01-22T06:24:58.269Z,3.26
2018-01-22T06:25:58.287Z,3.25
2018-01-22T06:26:58.292Z,3.31
2018-01-22T06:27:58.315Z,3.23
2018-01-22T06:28:58.313Z,3.26
2018-01-22T06:29:58.326Z,3.23
2018-01-22T06:30:58.339Z,3.10
2018-01-22T06:31:58.360Z,3.23
2018-01-22T06:32:58.362Z,3.28
2018-01-22T06:33:58.374Z,3.00
2018-01-22T06:34:58.390Z,3.13
2018-01-22T06:35:58.398Z,3.11
2018-01-22T06:36:58.409Z,3.01
2018-01-22T06:37:58.424Z,3.10
2018-01-22T06:38:58.433Z,2.98
2018-01-22T06:39:58.444Z,3.23
2018-01-22T06:40:58.458Z,3.23
2018-01-22T06:41:58.469Z,3.13
2018-01-22T06:42:58.483Z,3.19
2018-01-22T06:43:58.494Z,3.11
2018-01-22T06:44:58.510Z,3.14
2018-01-22T06:45:58.519Z,3.08
2018-01-22T06:46:58.530Z,3.16
2018-01-22T06:47:58.540Z,2.89
2018-01-22T06:48:58.553Z,2.87
2018-01-22T06:49:58.571Z,2.85
2018-01-22T06:50:58.609Z,2.90
2018-01-22T06:51:58.588Z,3.10
2018-01-22T06:52:58.601Z,3.00
2018-01-22T06:53:58.610Z,3.14
2018-01-22T06:54:58.624Z,3.01
2018-01-22T06:55:58.634Z,2.90
2018-01-22T06:56:58.647Z,2.95
2018-01-22T06:57:58.662Z,3.00
2018-01-22T06:58:58.673Z,3.03
2018-01-22T06:59:58.683Z,3.01
2018-01-22T07:00:58.695Z,2.97
2018-01-22T07:01:58.708Z,3.00
2018-01-22T07:02:58.721Z,3.25
2018-01-22T07:03:58.733Z,3.19
2018-01-22T07:04:58.741Z,3.31
2018-01-22T07:05:58.796Z,3.14
2018-01-22T07:06:58.765Z,3.11
2018-01-22T07:07:58.778Z,3.03
2018-01-22T07:08:58.789Z,3.08
2018-01-22T07:09:58.800Z,3.16
2018-01-22T07:10:58.816Z,3.07
2018-01-22T07:11:58.827Z,3.10
2018-01-22T07:12:58.838Z,3.19
2018-01-22T07:13:58.848Z,3.11
2018-01-22T07:14:58.869Z,3.19
2018-01-22T07:15:58.872Z,3.23
2018-01-22T07:16:58.885Z,3.14
2018-01-22T07:17:58.900Z,3.10
2018-01-22T07:18:58.909Z,3.11
2018-01-22T07:19:58.918Z,3.11
2018-01-22T07:20:58.934Z,3.23
2018-01-22T07:21:58.942Z,3.25
2018-01-22T07:22:58.956Z,3.19
2018-01-22T07:23:58.968Z,3.13
2018-01-22T07:24:58.981Z,3.18
2018-01-22T07:25:58.993Z,3.19
2018-01-22T07:26:59.003Z,3.31
2018-01-22T07:27:59.022Z,3.51
2018-01-22T07:28:59.027Z,3.41
2018-01-22T07:29:59.039Z,3.32
2018-01-22T07:30:59.050Z,3.36
2018-01-22T07:31:59.058Z,3.21
2018-01-22T07:32:59.073Z,3.29
2018-01-22T07:33:59.083Z,3.28
2018-01-22T07:34:59.102Z,3.26
2018-01-22T07:35:59.108Z,3.18
2018-01-22T07:36:59.120Z,3.26
2018-01-22T07:37:59.133Z,3.25
2018-01-22T07:38:59.145Z,3.29
2018-01-22T07:39:59.154Z,3.25
2018-01-22T07:40:59.209Z,3.29
2018-01-22T07:41:59.179Z,3.10
2018-01-22T07:42:59.196Z,3.03
2018-01-22T07:43:59.204Z,3.21
2018-01-22T07:44:59.213Z,3.25
2018-01-22T07:45:59.225Z,3.19
2018-01-22T07:46:59.239Z,3.25
2018-01-22T07:47:59.279Z,3.11
2018-01-22T07:48:59.266Z,3.00
2018-01-22T07:49:59.275Z,3.25
2018-01-22T07:50:59.288Z,3.37
2018-01-22T07:51:59.297Z,3.44
2018-01-22T07:52:59.311Z,3.44
2018-01-22T07:53:59.344Z,3.51
2018-01-22T07:54:59.335Z,3.45
2018-01-22T07:55:59.347Z,3.56
2018-01-22T07:56:59.359Z,3.56
2018-01-22T07:57:59.370Z,3.50
2018-01-22T07:58:59.384Z,3.37
2018-01-22T07:59:59.397Z,3.22
2018-01-22T08:00:59.403Z,3.10
2018-01-22T08:01:59.418Z,3.25
2018-01-22T08:02:59.431Z,3.25
2018-01-22T08:03:59.441Z,3.42
2018-01-22T08:04:59.458Z,3.37
2018-01-22T08:05:59.468Z,3.31
2018-01-22T08:06:59.482Z,3.36
2018-01-22T08:08:00.468Z,3.50
2018-01-22T08:08:59.502Z,3.73
2018-01-22T08:09:59.513Z,3.76
2018-01-22T08:10:59.526Z,3.63
2018-01-22T08:11:59.540Z,3.41
2018-01-22T08:12:59.552Z,3.51
2018-01-22T08:13:59.727Z,3.31
2018-01-22T08:14:59.581Z,3.34
2018-01-22T08:15:59.593Z,3.23
2018-01-22T08:16:59.606Z,3.23
2018-01-22T08:17:59.615Z,3.28
2018-01-22T08:18:59.626Z,3.31
2018-01-22T08:19:59.637Z,3.36
2018-01-22T08:20:59.648Z,3.31
2018-01-22T08:21:59.661Z,3.34
2018-01-22T08:22:59.673Z,3.28
2018-01-22T08:23:59.686Z,3.40
2018-01-22T08:24:59.708Z,3.32
2018-01-22T08:25:59.710Z,3.65
2018-01-22T08:26:59.722Z,3.83
2018-01-22T08:27:59.734Z,3.87
2018-01-22T08:28:59.745Z,3.81
2018-01-22T08:29:59.758Z,3.88
2018-01-22T08:30:59.769Z,3.81
2018-01-22T08:31:59.781Z,3.83
2018-01-22T08:32:59.797Z,3.69
2018-01-22T08:33:59.808Z,3.76
2018-01-22T08:34:59.819Z,3.63
2018-01-22T08:35:59.833Z,3.28
2018-01-22T08:36:59.846Z,3.34
2018-01-22T08:37:59.860Z,3.41
2018-01-22T08:38:59.869Z,3.32
2018-01-22T08:39:59.883Z,3.44
2018-01-22T08:40:59.894Z,3.40
2018-01-22T08:41:59.940Z,3.48
2018-01-22T08:42:59.918Z,3.40
2018-01-22T08:43:59.928Z,3.34
2018-01-22T08:44:59.944Z,3.47
2018-01-22T08:45:59.957Z,3.36
2018-01-22T08:46:59.984Z,3.25
2018-01-22T08:47:59.983Z,3.44
2018-01-22T08:48:59.997Z,3.65
2018-01-22T08:50:00.008Z,3.68
2018-01-22T08:51:00.018Z,3.63
2018-01-22T08:52:00.037Z,3.47
2018-01-22T08:53:00.045Z,3.34
2018-01-22T08:54:00.054Z,3.50
2018-01-22T08:55:00.064Z,3.55
2018-01-22T08:56:00.079Z,3.51
2018-01-22T08:57:00.091Z,3.41
2018-01-22T08:58:00.103Z,3.36
2018-01-22T08:59:00.117Z,3.45
2018-01-22T09:00:00.128Z,3.48
2018-01-22T09:01:00.145Z,3.62
2018-01-22T09:02:00.154Z,3.53
2018-01-22T09:03:00.166Z,3.70
2018-01-22T09:04:00.180Z,3.73
2018-01-22T09:05:00.192Z,3.62
2018-01-22T09:06:00.203Z,3.60
2018-01-22T09:07:00.214Z,3.65
2018-01-22T09:08:00.224Z,3.83
2018-01-22T09:09:00.237Z,3.80
2018-01-22T09:10:00.257Z,3.65
2018-01-22T09:11:00.270Z,3.69
2018-01-22T09:12:00.277Z,3.76
2018-01-22T09:13:00.289Z,3.87
2018-01-22T09:14:00.304Z,3.83
2018-01-22T09:15:00.314Z,3.55
2018-01-22T09:16:00.325Z,3.65
2018-01-22T09:17:00.339Z,3.73
2018-01-22T09:18:00.349Z,3.80
2018-01-22T09:19:00.365Z,3.86
2018-01-22T09:20:00.380Z,3.70
2018-01-22T09:21:00.392Z,3.70
2018-01-22T09:22:00.399Z,3.73
2018-01-22T09:23:00.432Z,3.59
2018-01-22T09:24:00.426Z,3.78
2018-01-22T09:25:00.439Z,3.86
2018-01-22T09:26:00.453Z,3.91
2018-01-22T09:27:00.465Z,3.81
2018-01-22T09:28:00.475Z,3.77
2018-01-22T09:29:00.489Z,3.66
2018-01-22T09:30:00.500Z,3.81
2018-01-22T09:31:00.513Z,3.81
2018-01-22T09:32:00.538Z,3.55
2018-01-22T09:33:00.539Z,3.60
2018-01-22T09:34:00.553Z,3.62
2018-01-22T09:35:00.564Z,3.66
2018-01-22T09:36:00.585Z,3.63
2018-01-22T09:37:00.588Z,3.76
2018-01-22T09:38:00.600Z,3.60
2018-01-22T09:39:00.615Z,3.66
2018-01-22T09:40:00.629Z,3.77
2018-01-22T09:41:00.640Z,3.87
2018-01-22T09:42:00.649Z,3.58
2018-01-22T09:43:00.664Z,3.45
2018-01-22T09:44:00.675Z,3.60
2018-01-22T09:45:00.687Z,3.78
2018-01-22T09:46:00.703Z,3.92
2018-01-22T09:47:00.716Z,3.86
2018-01-22T09:48:00.725Z,3.83
2018-01-22T09:49:00.798Z,3.81
2018-01-22T09:50:00.767Z,3.83
2018-01-22T09:51:00.771Z,3.77
2018-01-22T09:52:00.776Z,3.86
2018-01-22T09:53:00.789Z,3.87
2018-01-22T09:54:00.805Z,3.84
2018-01-22T09:55:00.814Z,3.56
2018-01-22T09:56:00.827Z,3.62
2018-01-22T09:57:00.838Z,3.50
2018-01-22T09:58:00.849Z,3.47
2018-01-22T09:59:00.870Z,3.69
2018-01-22T10:00:00.874Z,3.84
2018-01-22T10:01:00.889Z,3.86
2018-01-22T10:02:00.903Z,3.95
2018-01-22T10:03:00.913Z,4.10
2018-01-22T10:04:00.922Z,4.05
2018-01-22T10:05:00.935Z,4.14
2018-01-22T10:06:00.961Z,3.86
2018-01-22T10:07:00.964Z,4.16
2018-01-22T10:08:00.975Z,4.05
2018-01-22T10:09:01.003Z,4.06
2018-01-22T10:10:01.002Z,3.95
2018-01-22T10:11:01.017Z,4.02
2018-01-22T10:12:01.024Z,3.98
2018-01-22T10:13:01.037Z,3.98
2018-01-22T10:14:01.049Z,3.83
2018-01-22T10:15:01.074Z,3.81
2018-01-22T10:16:01.073Z,3.81
2018-01-22T10:17:01.085Z,3.70
2018-01-22T10:18:01.100Z,3.68
2018-01-22T10:19:01.110Z,3.74
2018-01-22T10:20:01.124Z,3.95
2018-01-22T10:21:01.135Z,3.91
2018-01-22T10:22:01.150Z,4.01
2018-01-22T10:23:01.160Z,4.02
2018-01-22T10:24:01.221Z,3.87
2018-01-22T10:25:01.190Z,3.98
2018-01-22T10:26:01.201Z,4.05
2018-01-22T10:27:01.214Z,4.13
2018-01-22T10:28:01.226Z,3.91
2018-01-22T10:29:01.237Z,3.94
2018-01-22T10:30:01.250Z,4.02
2018-01-22T10:31:01.263Z,4.16
2018-01-22T10:32:01.272Z,4.24
2018-01-22T10:33:01.288Z,4.14
2018-01-22T10:34:01.308Z,4.02
2018-01-22T10:35:01.314Z,3.77
2018-01-22T10:36:01.327Z,3.63
2018-01-22T10:37:01.337Z,3.83
2018-01-22T10:38:01.350Z,4.02
2018-01-22T10:39:01.360Z,4.17
2018-01-22T10:40:01.374Z,3.83
2018-01-22T10:41:01.390Z,4.01
2018-01-22T10:42:01.400Z,4.04
2018-01-22T10:43:01.420Z,3.95
2018-01-22T10:44:01.427Z,3.91
2018-01-22T10:45:01.441Z,3.88
2018-01-22T10:46:01.456Z,3.91
2018-01-22T10:47:01.462Z,4.05
2018-01-22T10:48:01.475Z,4.01
2018-01-22T10:49:01.487Z,4.01
2018-01-22T10:50:01.501Z,4.16
2018-01-22T10:51:01.518Z,4.23
2018-01-22T10:52:01.524Z,4.41
2018-01-22T10:53:01.540Z,4.35
2018-01-22T10:54:01.550Z,4.42
2018-01-22T10:55:01.563Z,4.42
2018-01-22T10:56:01.582Z,4.59
2018-01-22T10:57:01.591Z,4.40
2018-01-22T10:58:01.602Z,4.42
2018-01-22T10:59:01.618Z,4.60
2018-01-22T11:00:01.626Z,4.50
2018-01-22T11:01:01.641Z,4.24
2018-01-22T11:02:01.657Z,4.24
2018-01-22T11:03:01.668Z,4.19
2018-01-22T11:04:01.676Z,4.38
2018-01-22T11:05:01.729Z,4.38
2018-01-22T11:06:01.705Z,4.26
2018-01-22T11:07:01.751Z,4.16
2018-01-22T11:08:01.731Z,4.41
2018-01-22T11:09:01.744Z,4.16
2018-01-22T11:10:01.757Z,3.87
2018-01-22T11:11:01.774Z,3.98
2018-01-22T11:12:01.784Z,3.95
2018-01-22T11:13:01.796Z,4.14
2018-01-22T11:14:01.806Z,3.94
2018-01-22T11:15:01.822Z,3.92
2018-01-22T11:16:01.830Z,3.83
2018-01-22T11:17:01.867Z,4.05
2018-01-22T11:18:01.875Z,4.34
2018-01-22T11:19:01.872Z,4.45
2018-01-22T11:20:01.884Z,4.52
2018-01-22T11:21:01.893Z,4.75
2018-01-22T11:22:01.910Z,4.86
2018-01-22T11:23:01.921Z,4.67
2018-01-22T11:24:01.937Z,4.62
2018-01-22T11:25:01.947Z,4.70
2018-01-22T11:26:01.963Z,4.84
2018-01-22T11:27:01.973Z,4.80
2018-01-22T11:28:01.987Z,4.80
2018-01-22T11:29:01.998Z,5.02
2018-01-22T11:30:02.013Z,4.89
2018-01-22T11:31:02.028Z,4.82
2018-01-22T11:32:02.036Z,4.82
2018-01-22T11:33:02.052Z,4.74
2018-01-22T11:34:02.062Z,4.52
2018-01-22T11:35:02.081Z,4.32
2018-01-22T11:36:02.091Z,4.62
2018-01-22T11:37:02.103Z,4.62
2018-01-22T11:38:02.116Z,4.63
2018-01-22T11:39:02.127Z,4.59
2018-01-22T11:40:02.140Z,4.67
2018-01-22T11:41:02.156Z,4.55
2018-01-22T11:42:02.171Z,4.38
2018-01-22T11:43:02.180Z,4.22
2018-01-22T11:44:02.193Z,4.05
2018-01-22T11:45:02.207Z,4.14
2018-01-22T11:46:02.220Z,4.16
2018-01-22T11:47:02.235Z,4.30
2018-01-22T11:48:02.249Z,4.42
2018-01-22T11:49:02.259Z,4.56
2018-01-22T11:50:02.274Z,4.71
2018-01-22T11:51:02.286Z,4.55
2018-01-22T11:52:02.298Z,4.32
2018-01-22T11:53:02.313Z,4.26
2018-01-22T11:54:02.323Z,4.41
2018-01-22T11:55:02.336Z,4.38
2018-01-22T11:56:02.347Z,4.32
2018-01-22T11:57:02.363Z,4.52
2018-01-22T11:58:02.380Z,4.38
2018-01-22T11:59:02.387Z,4.31
2018-01-22T12:00:02.403Z,4.41
2018-01-22T12:01:02.414Z,4.50
2018-01-22T12:02:02.430Z,4.62
2018-01-22T12:03:02.441Z,4.70
2018-01-22T12:04:02.456Z,4.78
2018-01-22T12:05:02.467Z,5.04
2018-01-22T12:06:02.482Z,5.05
2018-01-22T12:07:02.494Z,4.84
2018-01-22T12:08:02.507Z,4.71
2018-01-22T12:09:02.578Z,4.75
2018-01-22T12:10:02.539Z,4.73
2018-01-22T12:11:02.545Z,4.89
2018-01-22T12:12:02.556Z,4.94
2018-01-22T12:13:02.574Z,5.21
2018-01-22T12:14:02.586Z,5.08
2018-01-22T12:15:02.601Z,4.92
2018-01-22T12:16:02.615Z,4.96
2018-01-22T12:17:02.627Z,4.89
2018-01-22T12:18:02.641Z,5.04
2018-01-22T12:19:02.653Z,5.04
2018-01-22T12:20:02.665Z,4.89
2018-01-22T12:21:02.679Z,5.05
2018-01-22T12:22:02.690Z,5.29
2018-01-22T12:23:02.734Z,5.41
2018-01-22T12:24:02.718Z,5.46
2018-01-22T12:25:02.730Z,5.35
2018-01-22T12:26:02.742Z,5.29
2018-01-22T12:27:02.760Z,5.18
2018-01-22T12:28:02.769Z,5.17
2018-01-22T12:29:02.782Z,5.15
2018-01-22T12:30:02.797Z,5.33
2018-01-22T12:31:02.810Z,5.39
2018-01-22T12:32:02.824Z,5.43
2018-01-22T12:33:02.836Z,5.39
2018-01-22T12:34:02.851Z,5.39
2018-01-22T12:35:02.865Z,5.28
2018-01-22T12:36:02.875Z,5.48
2018-01-22T12:37:02.890Z,5.44
2018-01-22T12:38:02.906Z,5.30
2018-01-22T12:39:02.919Z,5.41
2018-01-22T12:40:02.933Z,5.32
2018-01-22T12:41:02.946Z,5.29
2018-01-22T12:42:02.957Z,5.26
2018-01-22T12:43:02.971Z,5.32
2018-01-22T12:44:02.987Z,5.44
2018-01-22T12:45:03.000Z,5.59
2018-01-22T12:46:03.013Z,5.73
2018-01-22T12:47:03.027Z,5.68
2018-01-22T12:48:03.039Z,5.68
2018-01-22T12:49:03.051Z,5.75
2018-01-22T12:50:03.066Z,5.79
2018-01-22T12:51:03.078Z,5.91
2018-01-22T12:52:03.099Z,5.99
2018-01-22T12:53:03.107Z,5.98
2018-01-22T12:54:03.122Z,5.99
2018-01-22T12:55:03.133Z,6.02
2018-01-22T12:56:03.151Z,5.98
2018-01-22T12:57:03.159Z,5.87
2018-01-22T12:58:03.174Z,5.86
2018-01-22T12:59:03.190Z,5.76
2018-01-22T13:00:03.204Z,5.72
2018-01-22T13:01:03.216Z,5.56
2018-01-22T13:02:03.232Z,5.64
2018-01-22T13:03:03.244Z,5.89
2018-01-22T13:04:03.260Z,5.83
2018-01-22T13:05:03.271Z,5.89
2018-01-22T13:06:03.286Z,6.01
2018-01-22T13:07:03.299Z,5.82
2018-01-22T13:08:03.312Z,5.90
2018-01-22T13:09:03.331Z,5.83
2018-01-22T13:10:03.342Z,5.87
2018-01-22T13:11:03.353Z,5.79
2018-01-22T13:12:03.379Z,5.80
2018-01-22T13:13:03.382Z,5.73
2018-01-22T13:14:03.394Z,5.97
2018-01-22T13:15:03.407Z,5.90
2018-01-22T13:16:03.422Z,5.90
2018-01-22T13:17:03.436Z,5.91
2018-01-22T13:18:03.449Z,5.83
2018-01-22T13:19:03.464Z,5.87